Time;durP1;ratioP1;P1;durP2;ratioP2;P2;SDS_P1;SDS_P2;PMS_P1;PMS_P2;Temp;Humidity;BMP_temperature;BMP_pressure;BME280_temperature;BME280_humidity;BME280_pressure;Samples;Min_cycle;Max_cycle;Signal;HPM_P1;HPM_P2
2023/11/21 00:00:48;;;;;;;10.30;6.28;;;;;;;16.03;52.32;100827.59;5072884;28;20107;-57
2023/11/21 00:03:14;;;;;;;16.60;6.85;;;;;;;16.04;53.48;100829.31;5056249;28;20041;-57
2023/11/21 00:05:41;;;;;;;13.93;5.88;;;;;;;16.06;52.42;100827.28;5068971;28;20032;-56
2023/11/21 00:08:07;;;;;;;10.30;5.93;;;;;;;16.08;53.08;100830.69;5077008;28;20029;-56
2023/11/21 00:10:32;;;;;;;13.80;6.53;;;;;;;16.09;52.80;100835.91;5055366;28;20056;-57
2023/11/21 00:12:58;;;;;;;14.65;6.97;;;;;;;16.08;52.24;100836.09;5055206;28;20037;-56
2023/11/21 00:15:23;;;;;;;16.55;6.97;;;;;;;16.10;53.66;100842.16;5055038;28;20515;-56
2023/11/21 00:17:48;;;;;;;16.08;6.32;;;;;;;16.10;52.86;100840.31;5072929;28;20028;-57
2023/11/21 00:20:14;;;;;;;17.10;7.68;;;;;;;16.12;52.86;100842.84;5073095;28;20041;-56
2023/11/21 00:22:40;;;;;;;13.70;7.03;;;;;;;16.11;52.93;100841.13;5066295;28;20025;-57
2023/11/21 00:25:08;;;;;;;10.00;6.20;;;;;;;16.12;52.25;100842.84;5073201;28;20047;-56
2023/11/21 00:27:35;;;;;;;17.13;8.23;;;;;;;16.13;52.64;100840.00;5055722;28;20028;-57
2023/11/21 00:30:00;;;;;;;14.57;8.00;;;;;;;16.13;53.14;100837.28;5055927;28;20166;-56
2023/11/21 00:32:25;;;;;;;20.30;7.32;;;;;;;16.14;53.08;100847.06;5074218;28;20050;-56
2023/11/21 00:34:51;;;;;;;21.20;8.77;;;;;;;16.13;51.86;100850.81;5074533;28;20036;-56
2023/11/21 00:37:16;;;;;;;23.08;9.55;;;;;;;16.15;52.54;100853.31;5056384;28;20496;-56
2023/11/21 00:39:42;;;;;;;22.80;9.07;;;;;;;16.15;52.85;100853.31;5055817;28;20106;-56
2023/11/21 00:42:08;;;;;;;18.73;8.68;;;;;;;16.15;52.46;100859.59;5055820;28;20044;-57
2023/11/21 00:44:34;;;;;;;18.27;8.43;;;;;;;16.17;52.09;100862.09;5055365;28;20054;-57
2023/11/21 00:46:59;;;;;;;19.63;8.60;;;;;;;16.17;53.71;100856.69;5054881;28;20036;-57
2023/11/21 00:49:24;;;;;;;24.52;8.85;;;;;;;16.17;53.41;100856.69;5037852;28;20028;-57
2023/11/21 00:51:51;;;;;;;15.55;8.15;;;;;;;16.17;52.37;100862.97;5054625;28;20028;-57
2023/11/21 00:54:19;;;;;;;23.02;8.82;;;;;;;16.18;53.01;100864.66;5075983;28;20468;-56
2023/11/21 00:56:47;;;;;;;19.52;8.48;;;;;;;16.19;52.12;100870.91;5059091;28;20037;-57
2023/11/21 00:59:12;;;;;;;21.90;8.98;;;;;;;16.16;53.33;100863.13;5076583;28;20032;-56
2023/11/21 01:01:37;;;;;;;23.33;9.20;;;;;;;16.18;52.97;100869.22;5042176;28;20104;-57
2023/11/21 01:04:03;;;;;;;19.10;8.90;;;;;;;16.16;52.36;100873.94;5058884;28;20032;-56
2023/11/21 01:06:29;;;;;;;20.40;8.18;;;;;;;16.13;52.54;100864.31;5076530;28;20547;-56
2023/11/21 01:08:55;;;;;;;17.58;8.20;;;;;;;16.13;52.59;100860.75;5058822;28;20033;-57
2023/11/21 01:11:20;;;;;;;15.48;7.00;;;;;;;16.15;52.52;100861.44;5058647;28;20426;-57
2023/11/21 01:13:46;;;;;;;23.50;8.82;;;;;;;16.13;52.70;100866.16;5058203;28;20097;-56
2023/11/21 01:16:12;;;;;;;16.65;7.28;;;;;;;16.14;53.13;100873.25;5076185;28;20060;-56
2023/11/21 01:18:37;;;;;;;22.30;8.23;;;;;;;16.14;52.47;100874.09;5076020;28;20491;-57
2023/11/21 01:21:03;;;;;;;15.93;7.45;;;;;;;16.13;53.59;100876.97;5075034;28;20040;-56
2023/11/21 01:23:28;;;;;;;18.40;8.23;;;;;;;16.17;52.06;100881.03;5058279;28;20059;-57
2023/11/21 01:25:56;;;;;;;17.90;7.93;;;;;;;16.17;52.98;100878.31;5075441;28;20040;-57
2023/11/21 01:28:21;;;;;;;14.55;8.20;;;;;;;16.14;53.34;100875.94;5058306;28;20041;-57
2023/11/21 01:30:47;;;;;;;15.30;7.57;;;;;;;16.14;52.27;100886.75;5058472;28;20029;-57
2023/11/21 01:33:15;;;;;;;18.88;7.50;;;;;;;16.16;52.66;100887.47;5075953;28;20032;-57
2023/11/21 01:35:41;;;;;;;18.00;7.43;;;;;;;16.16;53.40;100884.75;5041744;28;20029;-57
2023/11/21 01:38:08;;;;;;;18.85;8.30;;;;;;;16.17;52.96;100895.38;5075639;28;20500;-57
2023/11/21 01:40:33;;;;;;;14.63;7.32;;;;;;;16.14;52.53;100884.91;5075748;28;20423;-57
2023/11/21 01:42:58;;;;;;;15.63;7.15;;;;;;;16.18;53.34;100890.84;5075778;28;20033;-57
2023/11/21 01:45:24;;;;;;;16.83;7.55;;;;;;;16.19;53.05;100889.84;5058094;28;20040;-57
2023/11/21 01:47:50;;;;;;;18.20;7.10;;;;;;;16.20;52.68;100889.66;5075856;28;20021;-57
2023/11/21 01:50:17;;;;;;;19.42;7.82;;;;;;;16.22;52.35;100886.78;5057924;28;20450;-57
2023/11/21 01:52:44;;;;;;;14.30;6.60;;;;;;;16.21;53.48;100890.50;5057971;28;20036;-57
2023/11/21 01:55:10;;;;;;;14.35;6.85;;;;;;;16.23;52.86;100888.47;5075655;28;20078;-57
2023/11/21 01:57:37;;;;;;;15.65;6.82;;;;;;;16.22;52.41;100892.19;5075495;28;20035;-57
2023/11/21 02:00:15;;;;;;;10.90;5.85;;;;;;;16.22;52.64;100887.63;5075936;28;20034;-57
2023/11/21 02:02:42;;;;;;;11.80;6.28;;;;;;;16.22;53.67;100881.38;5059465;28;20054;-57
2023/11/21 02:05:08;;;;;;;11.77;6.22;;;;;;;16.24;52.73;100882.94;5058365;28;20060;-64
2023/11/21 02:07:34;;;;;;;12.50;5.57;;;;;;;16.23;52.59;100877.66;5057987;28;20032;-64
2023/11/21 02:09:59;;;;;;;11.80;6.90;;;;;;;16.22;53.28;100884.06;5075212;28;20453;-64
2023/11/21 02:12:26;;;;;;;12.48;6.20;;;;;;;16.24;53.04;100885.63;5074887;28;20028;-64
2023/11/21 02:14:51;;;;;;;15.85;7.22;;;;;;;16.24;52.29;100895.59;5075300;28;20028;-64
2023/11/21 02:17:18;;;;;;;14.20;6.45;;;;;;;16.25;53.31;100897.25;5057196;28;20384;-64
2023/11/21 02:19:44;;;;;;;15.18;6.18;;;;;;;16.25;52.60;100908.06;5075671;28;20033;-64
2023/11/21 02:22:10;;;;;;;12.50;5.93;;;;;;;16.25;52.86;100908.06;5075127;28;20029;-64
2023/11/21 02:24:36;;;;;;;16.70;6.53;;;;;;;16.25;52.60;100908.06;5075056;28;20051;-64
2023/11/21 02:27:02;;;;;;;13.50;6.32;;;;;;;16.25;53.44;100913.47;5075196;28;20369;-64
2023/11/21 02:29:28;;;;;;;11.15;6.55;;;;;;;16.25;52.89;100916.19;5074880;28;20492;-64
2023/11/21 02:31:54;;;;;;;13.68;5.38;;;;;;;16.25;52.03;100908.94;5074983;28;20117;-64
2023/11/21 02:34:21;;;;;;;11.23;5.63;;;;;;;16.24;53.23;100901.84;5057215;28;20032;-64
2023/11/21 02:36:49;;;;;;;16.25;7.35;;;;;;;16.25;52.56;100902.66;5074785;28;20029;-64
2023/11/21 02:39:22;;;;;;;14.32;6.45;;;;;;;16.26;53.37;100904.38;5040483;28;20115;-64
2023/11/21 02:41:47;;;;;;;13.93;6.45;;;;;;;16.23;52.75;100902.84;5057826;28;20123;-64
2023/11/21 02:44:12;;;;;;;16.50;7.70;;;;;;;16.23;53.57;100904.69;5074679;28;20079;-64
2023/11/21 02:46:39;;;;;;;13.77;5.57;;;;;;;16.23;53.40;100910.09;5056646;28;20043;-64
2023/11/21 02:49:10;;;;;;;12.82;6.72;;;;;;;16.24;52.79;100911.81;5056954;28;20043;-64
2023/11/21 02:51:35;;;;;;;18.45;7.55;;;;;;;16.23;52.04;100920.91;5074717;28;20119;-64
2023/11/21 02:54:02;;;;;;;13.02;6.55;;;;;;;16.20;53.20;100915.84;5075167;28;20064;-64
2023/11/21 02:56:28;;;;;;;14.15;5.82;;;;;;;16.21;53.23;100917.53;5075335;28;20028;-64
2023/11/21 02:58:57;;;;;;;14.52;7.07;;;;;;;16.21;52.26;100915.69;5075454;28;20032;-64
2023/11/21 03:01:23;;;;;;;15.48;7.03;;;;;;;16.19;52.50;100909.56;5056942;28;20020;-64
2023/11/21 03:03:50;;;;;;;15.20;7.15;;;;;;;16.19;52.73;100914.97;5074695;28;20020;-64
2023/11/21 03:06:19;;;;;;;15.60;7.20;;;;;;;16.21;53.75;100928.34;5056741;28;20027;-64
2023/11/21 03:08:44;;;;;;;15.77;6.45;;;;;;;16.16;53.27;100920.72;5056529;28;20021;-64
2023/11/21 03:11:10;;;;;;;14.60;6.45;;;;;;;16.22;52.84;100932.72;5056300;28;20602;-64
2023/11/21 03:13:35;;;;;;;14.80;6.22;;;;;;;16.22;53.33;100935.44;5039456;28;20027;-64
2023/11/21 03:16:00;;;;;;;18.35;6.00;;;;;;;16.24;52.11;100938.84;5055871;28;20107;-64
2023/11/21 03:18:26;;;;;;;14.95;7.00;;;;;;;16.25;53.09;100932.41;5073738;28;20472;-64
2023/11/21 03:20:54;;;;;;;13.38;6.75;;;;;;;16.24;52.88;100938.84;5055815;28;20050;-65
2023/11/21 03:23:19;;;;;;;15.32;7.13;;;;;;;16.24;52.81;100938.84;5055902;28;20024;-64
2023/11/21 03:25:44;;;;;;;17.52;7.55;;;;;;;16.18;52.94;100940.34;5055865;28;20038;-63
2023/11/21 03:28:10;;;;;;;17.08;7.20;;;;;;;16.24;52.71;100944.25;5055956;28;20025;-63
2023/11/21 03:30:35;;;;;;;15.90;6.80;;;;;;;16.24;53.25;100955.91;5073941;28;20028;-64
2023/11/21 03:33:00;;;;;;;13.52;7.40;;;;;;;16.24;53.26;100955.91;5039066;28;20028;-64
2023/11/21 03:35:26;;;;;;;15.82;7.47;;;;;;;16.24;52.69;100955.91;5038992;28;20078;-63
2023/11/21 03:37:51;;;;;;;16.85;7.68;;;;;;;16.26;53.30;100959.28;5073324;28;20499;-64
2023/11/21 03:40:17;;;;;;;14.35;6.85;;;;;;;16.27;52.68;100960.97;5055801;28;20028;-63
2023/11/21 03:42:42;;;;;;;17.17;8.05;;;;;;;16.27;53.01;100962.84;5055549;28;20122;-63
2023/11/21 03:45:08;;;;;;;15.50;8.13;;;;;;;16.30;53.09;100970.63;5055242;28;20016;-64
2023/11/21 03:47:34;;;;;;;17.05;8.05;;;;;;;16.30;52.79;100965.22;5073630;28;20044;-63
2023/11/21 03:49:59;;;;;;;19.55;8.73;;;;;;;16.32;53.42;100965.91;5055584;28;20024;-63
2023/11/21 03:52:25;;;;;;;21.23;8.68;;;;;;;16.33;52.51;100972.16;5073447;28;20472;-63
2023/11/21 03:54:50;;;;;;;20.42;8.40;;;;;;;16.33;52.60;100970.31;5038676;28;20039;-63
2023/11/21 03:57:15;;;;;;;21.13;8.65;;;;;;;16.32;52.97;100968.59;5055784;28;20119;-63
2023/11/21 03:59:41;;;;;;;22.17;9.10;;;;;;;16.35;53.32;100970.13;5055296;28;20116;-63
2023/11/21 04:02:07;;;;;;;25.15;10.00;;;;;;;16.35;53.95;100973.69;5055372;28;20024;-63
2023/11/21 04:04:33;;;;;;;21.73;8.75;;;;;;;16.37;53.70;100976.22;5054278;28;20472;-63
2023/11/21 04:06:59;;;;;;;24.55;9.48;;;;;;;16.36;52.89;100975.38;5055739;28;20032;-63
2023/11/21 04:09:25;;;;;;;28.35;10.50;;;;;;;16.37;53.53;100977.06;5056562;28;20376;-63
2023/11/21 04:11:53;;;;;;;25.20;10.65;;;;;;;16.37;52.56;100976.22;5075189;28;20476;-63
2023/11/21 04:14:19;;;;;;;31.10;10.43;;;;;;;16.36;52.68;100980.78;5057623;28;20025;-63
2023/11/21 04:16:44;;;;;;;23.08;10.02;;;;;;;16.35;52.78;100989.91;5073659;28;20035;-64
2023/11/21 04:19:10;;;;;;;30.70;11.80;;;;;;;16.36;52.82;100991.59;5055557;28;20051;-64
2023/11/21 04:21:38;;;;;;;38.30;11.60;;;;;;;16.36;52.77;100985.34;5074081;28;20500;-65
2023/11/21 04:24:03;;;;;;;29.60;12.02;;;;;;;16.36;53.39;100980.78;5042479;28;20081;-63
2023/11/21 04:26:29;;;;;;;30.20;10.93;;;;;;;16.38;53.77;100988.75;5092888;28;20031;-57
2023/11/21 04:28:54;;;;;;;31.10;11.45;;;;;;;16.41;52.69;100993.81;5074408;28;20032;-57
2023/11/21 04:31:19;;;;;;;26.25;11.07;;;;;;;16.40;53.59;100992.97;5093031;28;20031;-57
2023/11/21 04:33:45;;;;;;;31.67;10.98;;;;;;;16.41;52.39;100985.72;5093353;28;20032;-57
2023/11/21 04:36:10;;;;;;;44.65;12.35;;;;;;;16.42;53.71;101001.75;5074785;28;20040;-57
2023/11/21 04:38:36;;;;;;;25.92;10.80;;;;;;;16.42;52.60;100985.53;5074978;28;20032;-57
2023/11/21 04:41:01;;;;;;;38.30;12.63;;;;;;;16.44;52.80;100994.34;5074924;28;20035;-57
2023/11/21 04:43:26;;;;;;;34.58;11.70;;;;;;;16.44;53.74;100991.66;5092589;28;20411;-57
2023/11/21 04:45:52;;;;;;;37.15;13.50;;;;;;;16.42;52.27;100996.34;5074664;28;20077;-57
2023/11/21 04:48:17;;;;;;;35.33;10.52;;;;;;;16.41;53.34;100997.38;5092875;28;20047;-57
2023/11/21 04:50:42;;;;;;;34.67;11.50;;;;;;;16.42;53.63;101003.59;5092451;28;20042;-57
2023/11/21 04:53:08;;;;;;;41.08;12.95;;;;;;;16.36;53.94;101010.50;5074594;28;20126;-57
2023/11/21 04:55:33;;;;;;;39.15;11.15;;;;;;;16.34;53.24;100999.03;5092824;28;20023;-57
2023/11/21 04:57:58;;;;;;;35.90;11.57;;;;;;;16.36;53.17;101002.41;5092487;28;20052;-57
2023/11/21 05:00:24;;;;;;;40.35;12.90;;;;;;;16.37;53.42;101009.50;5057825;28;20056;-57
2023/11/21 05:02:49;;;;;;;38.17;12.73;;;;;;;16.37;54.10;101012.22;5092746;28;20538;-57
2023/11/21 05:05:14;;;;;;;40.25;12.25;;;;;;;16.36;53.09;101018.63;5092883;28;20081;-57
2023/11/21 05:07:40;;;;;;;41.60;13.20;;;;;;;16.36;53.23;101018.63;5092627;28;20032;-57
2023/11/21 05:10:10;;;;;;;39.45;12.75;;;;;;;16.37;53.56;101017.63;5092844;28;20034;-56
2023/11/21 05:12:38;;;;;;;47.40;12.57;;;;;;;16.38;53.34;101022.03;5092778;28;20051;-56
2023/11/21 05:15:10;;;;;;;44.05;12.73;;;;;;;16.39;52.95;101031.81;5058244;28;20036;-57
2023/11/21 05:17:36;;;;;;;36.85;12.27;;;;;;;16.39;53.88;101029.13;5057855;28;20503;-57
2023/11/21 05:20:04;;;;;;;37.58;12.57;;;;;;;16.41;52.82;101027.13;5092373;28;20085;-57
2023/11/21 05:22:30;;;;;;;39.42;14.15;;;;;;;16.39;52.86;101034.53;5092505;28;20035;-57
2023/11/21 05:24:55;;;;;;;40.60;11.77;;;;;;;16.40;52.79;101036.22;5057624;28;20039;-57
2023/11/21 05:27:20;;;;;;;38.30;12.15;;;;;;;16.40;52.74;101047.03;5074463;28;20387;-57
2023/11/21 05:29:46;;;;;;;42.08;12.77;;;;;;;16.41;52.43;101043.34;5092363;28;20024;-56
2023/11/21 05:32:11;;;;;;;38.10;11.90;;;;;;;16.40;53.44;101047.03;5074489;28;20120;-57
2023/11/21 05:34:37;;;;;;;40.05;11.75;;;;;;;16.42;52.54;101063.09;5092281;28;20115;-56
2023/11/21 05:37:02;;;;;;;41.45;12.32;;;;;;;16.41;52.43;101058.72;5073870;28;20032;-57
2023/11/21 05:39:27;;;;;;;40.10;11.52;;;;;;;16.40;53.90;101060.56;5093609;28;20053;-57
2023/11/21 05:41:53;;;;;;;35.25;12.30;;;;;;;16.41;54.21;101064.97;5095385;28;20029;-57
2023/11/21 05:44:19;;;;;;;33.13;10.50;;;;;;;16.40;52.92;101067.81;5095561;28;20514;-56
2023/11/21 05:46:44;;;;;;;37.55;10.95;;;;;;;16.41;53.11;101067.69;5077339;28;20535;-57
2023/11/21 05:49:09;;;;;;;33.10;10.82;;;;;;;16.42;53.61;101076.63;5095575;28;20028;-57
2023/11/21 05:51:35;;;;;;;32.08;12.13;;;;;;;16.39;53.15;101066.16;5095482;28;20067;-57
2023/11/21 05:54:00;;;;;;;34.15;11.73;;;;;;;16.45;53.81;101068.19;5095339;28;20033;-56
2023/11/21 05:56:25;;;;;;;36.28;10.68;;;;;;;16.43;52.85;101068.34;5075944;28;20048;-57
2023/11/21 05:58:51;;;;;;;26.75;9.80;;;;;;;16.45;53.09;101069.03;5076787;28;20085;-57
2023/11/21 06:01:17;;;;;;;36.92;11.63;;;;;;;16.45;53.31;101077.16;5095285;28;20115;-57
2023/11/21 06:03:43;;;;;;;33.72;11.63;;;;;;;16.46;53.64;101078.84;5077025;28;20076;-57
2023/11/21 06:06:08;;;;;;;31.92;10.20;;;;;;;16.45;53.74;101077.16;5095019;28;20043;-57
2023/11/21 06:08:33;;;;;;;31.13;10.20;;;;;;;16.48;53.08;101087.66;5083809;28;20028;-57
2023/11/21 06:10:59;;;;;;;39.50;10.77;;;;;;;16.49;53.42;101092.06;5094482;28;20029;-56
2023/11/21 06:13:24;;;;;;;27.55;10.18;;;;;;;16.47;53.10;101094.06;5095251;28;20028;-56
2023/11/21 06:15:52;;;;;;;29.48;10.18;;;;;;;16.48;53.71;101103.88;5095221;28;20110;-57
2023/11/21 06:18:19;;;;;;;27.55;9.70;;;;;;;16.48;53.64;101101.16;5095050;28;20089;-57
2023/11/21 06:20:45;;;;;;;27.85;9.25;;;;;;;16.48;53.79;101098.47;5095343;28;20028;-58
2023/11/21 06:23:11;;;;;;;35.28;10.45;;;;;;;16.49;53.88;101113.69;5095321;28;20107;-56
2023/11/21 06:25:36;;;;;;;33.00;11.52;;;;;;;16.48;53.96;101114.69;5095678;28;20056;-57
2023/11/21 06:28:02;;;;;;;31.25;10.05;;;;;;;16.49;54.23;101120.94;5077528;28;20032;-58
2023/11/21 06:30:28;;;;;;;27.15;9.40;;;;;;;16.47;53.13;101123.78;5095465;28;20111;-58
2023/11/21 06:32:54;;;;;;;24.35;9.85;;;;;;;16.49;52.93;101115.53;5060118;28;20031;-57
2023/11/21 06:35:21;;;;;;;28.05;9.63;;;;;;;16.48;53.49;101114.69;5095217;28;20054;-57
2023/11/21 06:37:47;;;;;;;31.35;11.18;;;;;;;16.48;53.37;101122.81;5095064;28;20029;-57
2023/11/21 06:40:14;;;;;;;35.13;10.55;;;;;;;16.47;53.77;101123.78;5076984;28;20483;-56
2023/11/21 06:42:40;;;;;;;38.00;12.25;;;;;;;16.49;53.09;101124.50;5077476;28;20028;-57
2023/11/21 06:45:07;;;;;;;34.00;11.07;;;;;;;16.51;53.27;101132.44;5077156;28;20028;-56
2023/11/21 06:47:32;;;;;;;32.55;11.50;;;;;;;16.50;53.98;101139.72;5076399;28;20506;-57
2023/11/21 06:49:58;;;;;;;30.20;10.75;;;;;;;16.49;53.83;101148.84;5075898;28;20050;-57
2023/11/21 06:52:24;;;;;;;28.42;10.77;;;;;;;16.49;53.58;101148.84;5094555;28;20055;-57
2023/11/21 06:54:49;;;;;;;25.65;10.70;;;;;;;16.49;53.68;101145.28;5076585;28;20071;-57
2023/11/21 06:57:15;;;;;;;25.02;9.88;;;;;;;16.48;53.31;101152.53;5076494;28;20460;-57
2023/11/21 06:59:41;;;;;;;24.20;10.38;;;;;;;16.47;53.18;101155.44;5094615;28;20052;-56
2023/11/21 07:02:09;;;;;;;32.42;10.35;;;;;;;16.43;53.62;101159.44;5076653;28;20032;-56
2023/11/21 07:04:35;;;;;;;27.77;10.40;;;;;;;16.41;53.10;101162.31;5077127;28;20107;-56
2023/11/21 07:07:02;;;;;;;34.60;12.13;;;;;;;16.39;53.59;101164.31;5076897;28;20036;-56
2023/11/21 07:09:27;;;;;;;25.30;10.52;;;;;;;16.39;52.84;101172.41;5076592;28;20399;-57
2023/11/21 07:11:53;;;;;;;25.88;11.13;;;;;;;16.42;53.94;101182.91;5076388;28;20495;-57
2023/11/21 07:14:19;;;;;;;41.00;11.07;;;;;;;16.42;54.27;101180.22;5094333;28;20035;-57
2023/11/21 07:16:45;;;;;;;32.55;11.25;;;;;;;16.43;53.20;101186.47;5094234;28;20040;-57
2023/11/21 07:19:12;;;;;;;35.70;11.38;;;;;;;16.45;53.88;101188.00;5076081;28;20036;-57
2023/11/21 07:21:38;;;;;;;36.83;10.95;;;;;;;16.44;53.14;101188.19;5075998;28;20040;-56
2023/11/21 07:24:03;;;;;;;38.58;12.90;;;;;;;16.44;53.43;101188.19;5094363;28;20089;-56
2023/11/21 07:26:30;;;;;;;36.40;11.20;;;;;;;16.45;53.29;101193.44;5094555;28;20070;-56
2023/11/21 07:28:56;;;;;;;34.85;12.38;;;;;;;16.48;53.34;101197.66;5075933;28;20038;-56
2023/11/21 07:31:21;;;;;;;31.50;10.93;;;;;;;16.49;53.36;101197.53;5075953;28;20040;-56
2023/11/21 07:33:47;;;;;;;31.05;11.57;;;;;;;16.52;53.75;101202.63;5076684;28;20024;-57
2023/11/21 07:36:13;;;;;;;32.38;11.48;;;;;;;16.54;53.26;101216.84;5094812;28;20043;-57
2023/11/21 07:38:39;;;;;;;30.05;11.05;;;;;;;16.54;53.78;101211.44;5060590;28;20403;-57
2023/11/21 07:41:05;;;;;;;31.17;10.65;;;;;;;16.55;54.00;101210.44;5092540;28;20042;-57
2023/11/21 07:43:34;;;;;;;37.28;11.88;;;;;;;16.58;52.88;101223.63;5114812;28;20118;-58
2023/11/21 07:46:02;;;;;;;32.03;11.90;;;;;;;16.59;53.12;101219.94;5114395;28;20055;-57
2023/11/21 07:48:28;;;;;;;31.08;10.30;;;;;;;16.63;53.85;101223.19;5097738;28;20023;-57
2023/11/21 07:50:53;;;;;;;33.97;11.48;;;;;;;16.66;53.66;101226.41;5098400;28;20031;-57
2023/11/21 07:53:19;;;;;;;32.97;11.80;;;;;;;16.68;53.74;101224.41;5097478;28;20480;-57
2023/11/21 07:55:45;;;;;;;30.30;10.75;;;;;;;16.71;53.60;101232.19;5115025;28;20612;-57
2023/11/21 07:58:12;;;;;;;32.35;10.98;;;;;;;16.73;53.04;101238.28;5114567;28;20042;-56
2023/11/21 08:00:39;;;;;;;37.90;11.02;;;;;;;16.73;53.85;101246.41;5096291;28;20032;-57
2023/11/21 08:03:04;;;;;;;32.00;11.80;;;;;;;16.76;52.74;101248.78;5113614;28;20449;-60
2023/11/21 08:05:30;;;;;;;36.40;12.32;;;;;;;16.76;54.01;101247.94;5093043;28;20039;-57
2023/11/21 08:07:55;;;;;;;30.85;11.82;;;;;;;16.76;53.68;101251.50;5075585;28;20024;-57
2023/11/21 08:10:21;;;;;;;39.63;11.60;;;;;;;16.77;53.04;101245.09;5075498;28;20028;-57
2023/11/21 08:12:48;;;;;;;32.45;10.98;;;;;;;16.76;53.27;101254.22;5075196;28;20458;-57
2023/11/21 08:15:13;;;;;;;40.92;12.32;;;;;;;16.81;53.49;101259.97;5075307;28;20036;-57
2023/11/21 08:17:38;;;;;;;34.05;11.65;;;;;;;16.83;53.17;101254.44;5092656;28;20032;-57
2023/11/21 08:20:05;;;;;;;32.70;11.00;;;;;;;16.87;53.35;101261.19;5092989;28;20032;-57
2023/11/21 08:22:30;;;;;;;32.47;10.30;;;;;;;16.88;53.01;101266.47;5093034;28;20499;-57
2023/11/21 08:24:56;;;;;;;26.42;9.93;;;;;;;16.89;53.27;101265.44;5092808;28;20034;-57
2023/11/21 08:27:21;;;;;;;25.23;10.50;;;;;;;16.91;53.29;101272.56;5092804;28;20024;-57
2023/11/21 08:29:47;;;;;;;25.65;10.60;;;;;;;16.92;52.85;101272.41;5074991;28;20064;-57
2023/11/21 08:32:12;;;;;;;25.50;9.93;;;;;;;16.93;52.70;101284.06;5074655;28;20126;-57
2023/11/21 08:34:39;;;;;;;26.30;10.23;;;;;;;16.94;52.94;101283.06;5092778;28;20506;-59
2023/11/21 08:37:05;;;;;;;24.17;9.32;;;;;;;16.97;52.35;101282.75;5092356;28;20507;-57
2023/11/21 08:39:31;;;;;;;25.88;10.18;;;;;;;16.99;52.64;101291.56;5092381;28;20042;-57
2023/11/21 08:41:57;;;;;;;27.25;9.38;;;;;;;16.98;52.95;101285.28;5074792;28;20039;-57
2023/11/21 08:44:23;;;;;;;34.90;11.13;;;;;;;17.00;53.44;101285.97;5074945;28;20403;-57
2023/11/21 08:46:49;;;;;;;29.23;8.90;;;;;;;17.00;53.22;101287.84;5058215;28;20040;-57
2023/11/21 08:49:15;;;;;;;33.15;10.18;;;;;;;17.00;53.16;101287.84;5092644;28;20036;-57
2023/11/21 08:51:41;;;;;;;31.38;10.15;;;;;;;17.02;53.29;101291.25;5092649;28;20456;-57
2023/11/21 08:54:08;;;;;;;30.80;10.10;;;;;;;17.03;53.62;101295.66;5074635;28;20119;-57
2023/11/21 08:56:36;;;;;;;35.13;11.20;;;;;;;17.05;53.70;101304.47;5074835;28;20032;-57
2023/11/21 08:59:02;;;;;;;29.08;10.48;;;;;;;17.06;53.32;101306.16;5088641;28;20059;-57
2023/11/21 09:01:31;;;;;;;32.55;11.80;;;;;;;17.06;53.04;101303.44;5074371;28;20020;-57
2023/11/21 09:03:57;;;;;;;36.17;9.85;;;;;;;17.03;52.57;101304.59;5074963;28;20055;-57
2023/11/21 09:06:22;;;;;;;26.30;9.98;;;;;;;17.07;53.01;101307.84;5092731;28;20059;-57
2023/11/21 09:08:47;;;;;;;28.05;10.30;;;;;;;17.10;53.15;101315.66;5075218;28;20420;-57
2023/11/21 09:11:13;;;;;;;34.92;10.65;;;;;;;17.11;53.95;101311.94;5092617;28;20051;-56
2023/11/21 09:13:38;;;;;;;30.42;10.45;;;;;;;17.11;53.67;101323.63;5075092;28;20485;-57
2023/11/21 09:16:05;;;;;;;32.40;10.77;;;;;;;17.13;54.06;101327.03;5096484;28;20494;-57
2023/11/21 09:18:31;;;;;;;32.25;10.52;;;;;;;17.15;53.52;101329.56;5074412;28;20013;-56
2023/11/21 09:20:56;;;;;;;31.38;11.07;;;;;;;17.14;53.21;101322.47;5091156;28;20093;-56
2023/11/21 09:23:22;;;;;;;43.42;10.95;;;;;;;17.17;52.78;101333.81;5096572;28;20035;-57
2023/11/21 09:25:49;;;;;;;33.75;10.63;;;;;;;17.18;52.99;101331.94;5061319;28;20170;-57
2023/11/21 09:28:15;;;;;;;36.90;12.05;;;;;;;17.18;53.18;101330.09;5078097;28;20463;-57
2023/11/21 09:30:40;;;;;;;32.33;11.93;;;;;;;17.18;52.79;101335.50;5066835;28;20028;-57
2023/11/21 09:33:06;;;;;;;32.35;11.38;;;;;;;17.20;53.57;101338.91;5058168;28;20029;-56
2023/11/21 09:35:32;;;;;;;38.60;11.30;;;;;;;17.21;52.52;101342.47;5060340;28;20035;-57
2023/11/21 09:37:57;;;;;;;31.40;11.10;;;;;;;17.22;52.82;101330.63;5075884;28;20025;-56
2023/11/21 09:40:22;;;;;;;38.72;10.93;;;;;;;17.23;52.67;101333.16;5075608;28;20480;-57
2023/11/21 09:42:57;;;;;;;30.55;10.73;;;;;;;17.32;53.44;101336.78;5057851;28;20114;-57
2023/11/21 09:45:28;;;;;;;30.00;11.30;;;;;;;17.36;53.61;101341.69;5055683;28;20042;-57
2023/11/21 09:47:55;;;;;;;42.42;11.15;;;;;;;17.37;53.64;101342.56;5095483;28;20032;-57
2023/11/21 09:50:24;;;;;;;33.58;11.15;;;;;;;17.40;53.24;101345.81;5077351;28;20426;-57
2023/11/21 09:53:10;;;;;;;35.58;11.98;;;;;;;17.39;53.41;101354.09;5077363;28;20036;-57
2023/11/21 09:55:36;;;;;;;37.42;11.38;;;;;;;17.36;53.62;101349.81;5095145;28;20512;-56
2023/11/21 09:58:03;;;;;;;34.70;11.93;;;;;;;17.36;53.09;101352.53;5077090;28;20028;-57
2023/11/21 10:00:31;;;;;;;32.05;10.30;;;;;;;17.34;53.05;101361.84;5076887;28;20118;-57
2023/11/21 10:02:57;;;;;;;36.38;11.23;;;;;;;17.38;53.83;101364.09;5091119;28;20084;-56
2023/11/21 10:05:23;;;;;;;32.92;10.68;;;;;;;17.42;54.00;101359.16;5076840;28;20109;-58
2023/11/21 10:07:50;;;;;;;31.80;11.82;;;;;;;17.44;53.24;101363.44;5094760;28;20032;-56
2023/11/21 10:10:18;;;;;;;31.67;11.07;;;;;;;17.45;53.46;101365.13;5076738;28;20032;-58
2023/11/21 10:12:47;;;;;;;33.78;10.90;;;;;;;17.47;53.67;101373.94;5094896;28;20082;-56
2023/11/21 10:15:16;;;;;;;32.63;12.02;;;;;;;17.50;53.34;101371.94;5076724;28;20032;-58
2023/11/21 10:17:45;;;;;;;30.60;10.90;;;;;;;17.49;53.80;101376.50;5077214;28;20039;-57
2023/11/21 10:20:13;;;;;;;30.80;10.70;;;;;;;17.53;54.04;101374.31;5077069;28;20451;-57
2023/11/21 10:22:41;;;;;;;33.70;10.85;;;;;;;17.50;53.62;101378.22;5092102;28;20052;-57
2023/11/21 10:25:07;;;;;;;34.03;10.48;;;;;;;17.53;53.77;101380.59;5076436;28;20395;-56
2023/11/21 10:27:33;;;;;;;32.85;10.65;;;;;;;17.51;53.76;101385.31;5094662;28;20032;-57
2023/11/21 10:30:04;;;;;;;36.13;10.52;;;;;;;17.50;53.12;101391.75;5076286;28;20518;-56
2023/11/21 10:32:32;;;;;;;35.53;11.18;;;;;;;17.52;54.05;101388.88;5094584;28;20028;-57
2023/11/21 10:34:59;;;;;;;45.95;11.35;;;;;;;17.55;53.18;101384.03;5060043;28;20070;-57
2023/11/21 10:37:26;;;;;;;35.50;9.75;;;;;;;17.53;53.05;101380.59;5094425;28;20028;-56
2023/11/21 10:39:57;;;;;;;33.20;10.63;;;;;;;17.52;52.82;101387.00;5076171;28;20035;-56
2023/11/21 10:42:24;;;;;;;32.40;10.65;;;;;;;17.47;52.68;101383.94;5092347;28;20039;-56
2023/11/21 10:44:49;;;;;;;31.15;9.05;;;;;;;17.50;52.83;101385.47;5094211;28;20491;-57
2023/11/21 10:47:15;;;;;;;30.58;10.55;;;;;;;17.51;53.16;101390.72;5076099;28;20038;-56
2023/11/21 10:49:40;;;;;;;28.60;9.90;;;;;;;17.53;52.97;101387.88;5059400;28;20051;-57
2023/11/21 10:52:06;;;;;;;36.40;11.50;;;;;;;17.52;53.72;101383.44;5094151;28;20051;-57
2023/11/21 10:54:31;;;;;;;30.77;10.30;;;;;;;17.56;53.49;101395.72;5093948;28;20093;-57
2023/11/21 10:56:59;;;;;;;33.15;10.98;;;;;;;17.56;53.67;101382.16;5075498;28;20399;-57
2023/11/21 10:59:26;;;;;;;26.83;10.00;;;;;;;17.61;53.88;101390.66;5094286;28;20028;-57
2023/11/21 11:01:52;;;;;;;38.78;11.82;;;;;;;17.65;53.16;101392.88;5059213;28;20119;-57
2023/11/21 11:04:19;;;;;;;36.15;10.98;;;;;;;17.66;54.07;101400.00;5059081;28;20032;-57
2023/11/21 11:06:44;;;;;;;34.58;10.18;;;;;;;17.65;53.60;101394.72;5094257;28;20043;-56